Time;durP1;ratioP1;P1;durP2;ratioP2;P2;SDS_P1;SDS_P2;PMS_P1;PMS_P2;Temp;Humidity;BMP_temperature;BMP_pressure;BME280_temperature;BME280_humidity;BME280_pressure;Samples;Min_cycle;Max_cycle;Signal;HPM_P1;HPM_P2
2023/02/13 00:01:26;;;;;;;3.90;2.40;;;;;;;-1.43;58.09;100779.79;107224;1257;69876;-39
2023/02/13 00:03:59;;;;;;;6.80;2.80;;;;;;;-1.40;58.05;100779.76;107220;1257;73876;-39
2023/02/13 00:06:28;;;;;;;;;;;;;;;-1.40;58.12;100780.57;107197;1258;60467;-39
2023/02/13 00:08:56;;;;;;;4.90;2.60;;;;;;;-1.45;58.26;100781.29;107174;1258;60477;-39
2023/02/13 00:11:28;;;;;;;4.50;2.30;;;;;;;-1.48;58.60;100778.27;107165;1260;74361;-39
2023/02/13 00:13:57;;;;;;;6.50;2.80;;;;;;;-1.47;58.70;100771.80;106499;1257;1003317;-40
2023/02/13 00:16:26;;;;;;;7.00;2.10;;;;;;;-1.45;58.59;100772.84;107200;1257;73829;-40
2023/02/13 00:19:02;;;;;;;4.20;2.30;;;;;;;-1.44;58.92;100767.10;107220;1257;61560;-40
2023/02/13 00:21:35;;;;;;;7.20;2.50;;;;;;;-1.45;58.93;100768.36;107236;1257;61567;-40
2023/02/13 00:24:05;;;;;;;7.20;2.50;;;;;;;-1.46;58.80;100761.82;107246;1258;74887;-40
2023/02/13 00:26:33;;;;;;;3.80;2.30;;;;;;;-1.46;58.99;100764.15;107230;1260;69974;-40
2023/02/13 00:29:06;;;;;;;4.40;2.30;;;;;;;-1.46;59.03;100765.75;107214;1257;73855;-40
2023/02/13 00:31:36;;;;;;;9.40;2.80;;;;;;;-1.47;59.06;100762.34;107181;1257;60820;-40
2023/02/13 00:34:04;;;;;;;7.40;2.70;;;;;;;-1.49;59.15;100758.31;107268;1259;60045;-40
2023/02/13 00:36:34;;;;;;;;;;;;;;;-1.53;59.39;100752.68;106552;1257;1005816;-40
2023/02/13 00:39:03;;;;;;;4.10;2.30;;;;;;;-1.62;59.55;100754.20;107106;1257;71536;-40
2023/02/13 00:41:31;;;;;;;5.50;2.40;;;;;;;-1.66;59.65;100753.14;106975;1258;73875;-40
2023/02/13 00:44:00;;;;;;;4.40;2.30;;;;;;;-1.65;59.69;100748.56;107105;1257;61590;-40
2023/02/13 00:46:31;;;;;;;7.50;2.50;;;;;;;-1.65;59.87;100749.23;107120;1257;61306;-40
2023/02/13 00:49:00;;;;;;;6.10;2.60;;;;;;;-1.66;60.03;100748.77;107224;1257;75055;-39
2023/02/13 00:51:29;;;;;;;3.30;1.70;;;;;;;-1.65;59.96;100748.20;107131;1257;70281;-40
2023/02/13 00:53:58;;;;;;;5.60;2.30;;;;;;;-1.68;60.02;100744.70;107148;1256;73495;-40
2023/02/13 00:56:27;;;;;;;4.70;2.30;;;;;;;-1.70;60.26;100745.48;106346;1257;1003511;-40
2023/02/13 00:58:58;;;;;;;5.80;2.60;;;;;;;-1.72;60.51;100744.21;106480;1257;1003561;-40
2023/02/13 01:01:28;;;;;;;4.60;2.40;;;;;;;-1.77;60.63;100744.42;107244;1257;74726;-40
2023/02/13 01:03:56;;;;;;;5.10;2.40;;;;;;;-1.80;60.78;100745.48;107277;1257;69641;-40
2023/02/13 01:06:25;;;;;;;5.90;2.90;;;;;;;-1.82;61.06;100740.04;107242;1257;72978;-40
2023/02/13 01:08:53;;;;;;;7.80;2.40;;;;;;;-1.85;61.07;100736.66;107257;1257;61570;-40
2023/02/13 01:11:22;;;;;;;4.50;2.20;;;;;;;-1.88;61.59;100734.41;107119;1257;60448;-40
2023/02/13 01:13:51;;;;;;;7.90;3.20;;;;;;;-1.86;61.40;100727.17;107252;1257;74700;-40
2023/02/13 01:16:21;;;;;;;4.80;2.60;;;;;;;-1.77;61.65;100723.48;107309;1257;69929;-40
2023/02/13 01:18:50;;;;;;;4.60;2.50;;;;;;;-1.71;61.48;100723.70;107312;1257;72640;-39
2023/02/13 01:21:20;;;;;;;8.00;3.40;;;;;;;-1.69;61.62;100723.10;107267;1257;60579;-40
2023/02/13 01:23:52;;;;;;;7.00;2.50;;;;;;;-1.68;61.60;100720.62;106488;1257;1002732;-40
2023/02/13 01:26:23;;;;;;;7.70;3.30;;;;;;;-1.67;61.62;100718.83;106517;1257;1002677;-40
2023/02/13 01:28:53;;;;;;;7.40;2.90;;;;;;;-1.67;61.40;100718.35;107274;1257;69685;-40
2023/02/13 01:31:25;;;;;;;7.20;2.90;;;;;;;-1.70;61.40;100714.59;107059;1257;72135;-40
2023/02/13 01:33:57;;;;;;;5.10;2.60;;;;;;;-1.75;61.56;100711.55;107147;1257;60806;-40
2023/02/13 01:36:25;;;;;;;7.20;3.10;;;;;;;-1.82;61.66;100715.43;107235;1259;61511;-40
2023/02/13 01:38:55;;;;;;;;;;;;;;;-1.89;61.76;100711.02;107277;1257;73635;-40
2023/02/13 01:41:25;;;;;;;5.70;2.90;;;;;;;-2.02;61.96;100704.61;106516;1258;1003530;-40
2023/02/13 01:43:58;;;;;;;7.20;3.20;;;;;;;-2.14;62.25;100702.05;107044;1258;73660;-41
2023/02/13 01:46:31;;;;;;;7.90;3.70;;;;;;;-2.21;62.58;100698.92;106494;1260;1002894;-40
2023/02/13 01:49:09;;;;;;;8.80;3.50;;;;;;;-2.28;62.94;100698.39;107253;1257;61258;-40
2023/02/13 01:51:37;;;;;;;9.20;3.70;;;;;;;-2.36;63.09;100694.44;107259;1257;74815;-40
2023/02/13 01:54:20;;;;;;;8.50;3.40;;;;;;;-2.40;63.40;100697.48;107267;1258;69919;-40
2023/02/13 01:56:54;;;;;;;6.40;3.40;;;;;;;-2.38;63.51;100694.61;107003;1259;73819;-40
2023/02/13 01:59:30;;;;;;;6.30;2.90;;;;;;;-2.39;63.62;100695.87;107223;1257;60841;-40
2023/02/13 02:01:58;;;;;;;6.40;3.30;;;;;;;-2.42;63.57;100698.69;107269;1256;61583;-40
2023/02/13 02:04:30;;;;;;;8.10;3.60;;;;;;;-2.46;63.59;100700.41;107263;1260;74918;-40
2023/02/13 02:07:05;;;;;;;5.70;3.20;;;;;;;-2.53;63.49;100694.05;107286;1257;69086;-40
2023/02/13 02:09:38;;;;;;;7.20;3.30;;;;;;;-2.60;63.57;100689.41;107315;1257;71554;-40
2023/02/13 02:12:26;;;;;;;8.20;3.80;;;;;;;-2.69;63.69;100684.98;107190;1257;60447;-40
2023/02/13 02:14:59;;;;;;;7.20;3.60;;;;;;;-2.78;63.87;100684.48;107260;1256;61588;-40
2023/02/13 02:17:31;;;;;;;8.50;3.70;;;;;;;-2.89;64.00;100680.52;107196;1256;73820;-40
2023/02/13 02:20:28;;;;;;;7.10;3.60;;;;;;;-2.97;64.23;100675.88;107286;1257;68764;-40
2023/02/13 02:23:03;;;;;;;7.00;3.80;;;;;;;-3.05;64.49;100667.60;106380;1256;1003554;-40
2023/02/13 02:25:45;;;;;;;9.80;4.00;;;;;;;-3.15;64.92;100666.58;107274;1256;61932;-40
2023/02/13 02:29:05;;;;;;;7.90;3.50;;;;;;;-3.16;65.08;100668.65;107115;1257;61561;-40
2023/02/13 02:32:12;;;;;;;9.90;3.70;;;;;;;-3.09;65.10;100666.65;106735;1260;75103;-40
2023/02/13 02:35:09;;;;;;;8.80;3.40;;;;;;;-3.12;65.23;100669.62;107367;1256;69272;-40
2023/02/13 02:38:25;;;;;;;9.90;4.00;;;;;;;-3.13;65.31;100671.77;107385;1257;72209;-39
2023/02/13 02:41:06;;;;;;;7.00;3.60;;;;;;;-3.16;65.38;100670.70;107370;1257;60786;-40
2023/02/13 02:43:51;;;;;;;12.10;3.80;;;;;;;-3.21;65.43;100672.85;107324;1257;60513;-39
2023/02/13 02:46:35;;;;;;;5.50;3.00;;;;;;;-3.33;65.59;100659.04;107317;1258;75041;-39
2023/02/13 02:51:57;;;;;;;;;;;;;;;-3.37;66.21;100665.44;107280;1257;73853;-40
2023/02/13 02:57:24;;;;;;;10.00;3.20;;;;;;;-3.50;66.81;100664.65;107262;1257;60253;-40
2023/02/13 03:13:17;;;;;;;10.40;3.80;;;;;;;-3.27;67.29;100663.07;107251;1257;61060;-39
2023/02/13 03:13:55;;;;;;;11.20;3.30;;;;;;;-3.19;67.31;100661.66;107169;1257;75072;-39
2023/02/13 03:22:37;;;;;;;6.50;3.30;;;;;;;-3.14;67.35;100649.84;107159;1257;61505;-39
2023/02/13 03:25:34;;;;;;;6.00;3.10;;;;;;;-3.17;67.48;100640.72;107184;1257;61411;-39
2023/02/13 03:31:05;;;;;;;;;;;;;;;-3.15;67.98;100635.70;107163;1257;69921;-39
2023/02/13 03:34:06;;;;;;;7.10;3.10;;;;;;;-3.10;68.15;100631.77;107233;1257;74050;-39
2023/02/13 03:39:59;;;;;;;7.80;3.60;;;;;;;-2.88;68.23;100612.48;107193;1257;61511;-39
2023/02/13 03:42:51;;;;;;;8.10;3.30;;;;;;;-2.82;68.33;100611.39;107156;1257;74583;-39
2023/02/13 03:50:04;;;;;;;5.50;3.20;;;;;;;-2.70;68.36;100601.66;106455;1257;1002940;-39
2023/02/13 03:50:58;;;;;;;5.40;3.00;;;;;;;-2.66;68.57;100602.61;107137;1257;60772;-39
2023/02/13 03:53:28;;;;;;;7.50;3.90;;;;;;;-2.64;68.85;100596.66;107179;1257;61416;-39
2023/02/13 04:01:33;;;;;;;6.40;3.10;;;;;;;-2.35;68.85;100585.52;107253;1256;73627;-40
2023/02/13 04:04:07;;;;;;;7.40;3.60;;;;;;;-2.30;68.89;100584.83;107214;1260;60753;-40
2023/02/13 04:06:45;;;;;;;7.90;3.50;;;;;;;-2.23;68.97;100585.66;107246;1257;61528;-40
2023/02/13 04:09:15;;;;;;;8.10;3.60;;;;;;;-2.19;69.02;100582.01;107275;1257;74072;-39
2023/02/13 04:12:07;;;;;;;6.60;3.30;;;;;;;-2.15;68.96;100581.36;107301;1256;69828;-41
2023/02/13 04:15:00;;;;;;;6.60;3.90;;;;;;;-2.10;68.99;100581.70;107266;1257;73784;-40
2023/02/13 04:17:33;;;;;;;9.70;3.80;;;;;;;-2.06;68.98;100580.31;107299;1260;60562;-40
2023/02/13 04:20:02;;;;;;;9.50;4.10;;;;;;;-2.03;69.19;100583.45;107276;1260;59838;-40
2023/02/13 04:22:31;;;;;;;7.70;4.20;;;;;;;-1.93;69.01;100580.36;107267;1256;74944;-40
2023/02/13 04:24:59;;;;;;;6.60;3.90;;;;;;;-1.82;68.76;100576.80;107173;1257;69615;-40
2023/02/13 04:27:28;;;;;;;8.70;4.10;;;;;;;-1.74;68.73;100576.83;107203;1257;73947;-40
2023/02/13 04:29:57;;;;;;;6.50;3.50;;;;;;;-1.70;68.70;100571.02;107216;1257;60694;-40
2023/02/13 04:32:25;;;;;;;6.50;3.70;;;;;;;-1.66;68.45;100568.63;107374;1257;61606;-40
2023/02/13 04:34:54;;;;;;;8.20;4.10;;;;;;;-1.63;68.50;100574.18;107305;1257;75062;-40
2023/02/13 04:37:23;;;;;;;8.80;4.20;;;;;;;-1.63;68.48;100571.38;107311;1257;69916;-40
2023/02/13 04:39:51;;;;;;;11.70;4.80;;;;;;;-1.61;68.42;100576.65;107249;1257;73914;-40
2023/02/13 04:42:22;;;;;;;6.80;4.00;;;;;;;-1.56;68.36;100580.42;107249;1257;62110;-40
2023/02/13 04:44:50;;;;;;;13.90;4.20;;;;;;;-1.45;68.28;100579.92;107256;1258;61512;-40
2023/02/13 04:47:19;;;;;;;7.20;4.00;;;;;;;-1.37;67.99;100580.73;107257;1257;75050;-40
2023/02/13 04:49:47;;;;;;;8.70;4.00;;;;;;;-1.40;67.88;100571.66;107271;1257;69373;-40
2023/02/13 04:52:19;;;;;;;7.20;4.20;;;;;;;-1.30;67.64;100575.84;107130;1257;72835;-40
2023/02/13 04:54:47;;;;;;;8.50;4.10;;;;;;;-1.29;67.74;100573.15;107175;1259;60734;-40
2023/02/13 04:57:16;;;;;;;6.90;4.20;;;;;;;-1.30;67.81;100574.52;107248;1258;61285;-40
2023/02/13 04:59:45;;;;;;;8.50;4.10;;;;;;;-1.32;67.77;100569.25;107258;1257;74964;-40
2023/02/13 05:02:13;;;;;;;9.50;4.40;;;;;;;-1.34;67.92;100565.83;107285;1257;69840;-40
2023/02/13 05:04:42;;;;;;;7.50;4.00;;;;;;;-1.29;67.90;100560.38;107291;1261;71753;-40
2023/02/13 05:07:11;;;;;;;8.50;4.50;;;;;;;-1.21;67.82;100565.04;107238;1261;60755;-40
2023/02/13 05:09:39;;;;;;;9.80;5.10;;;;;;;-1.18;67.76;100564.52;107262;1258;61554;-40
2023/02/13 05:12:09;;;;;;;8.90;4.50;;;;;;;-1.17;67.78;100566.56;107237;1259;75046;-40
2023/02/13 05:14:37;;;;;;;9.00;5.00;;;;;;;-1.17;67.79;100562.79;107251;1260;69941;-40
2023/02/13 05:17:06;;;;;;;14.10;5.60;;;;;;;-1.16;67.79;100561.29;107207;1259;73220;-40
2023/02/13 05:19:35;;;;;;;8.20;4.80;;;;;;;-1.18;67.96;100564.16;107252;1257;60691;-40
2023/02/13 05:24:52;;;;;;;8.20;4.70;;;;;;;-1.14;68.16;100565.90;107199;1258;72719;-40
2023/02/13 05:27:21;;;;;;;9.60;5.00;;;;;;;-1.09;68.10;100559.39;107241;1259;69816;-40
2023/02/13 05:29:49;;;;;;;9.10;5.50;;;;;;;-1.09;68.17;100563.39;107271;1259;73900;-40
2023/02/13 05:32:18;;;;;;;9.00;5.40;;;;;;;-1.10;68.24;100576.36;107268;1260;60805;-40
2023/02/13 05:34:46;;;;;;;11.00;5.80;;;;;;;-1.10;68.39;100577.84;107291;1257;60377;-40
2023/02/13 05:37:15;;;;;;;10.20;5.40;;;;;;;-1.10;68.53;100577.79;107214;1261;74622;-40
2023/02/13 05:39:43;;;;;;;9.70;5.60;;;;;;;-1.11;68.45;100579.27;106458;1260;1003829;-40
2023/02/13 05:42:11;;;;;;;11.80;5.20;;;;;;;-1.08;68.66;100584.09;107069;1258;73699;-40
2023/02/13 05:44:42;;;;;;;11.00;6.20;;;;;;;-1.02;68.66;100587.02;107096;1259;60517;-40
2023/02/13 05:47:11;;;;;;;8.90;5.60;;;;;;;-1.02;68.53;100582.30;107134;1259;61507;-40
2023/02/13 05:49:42;;;;;;;10.40;5.70;;;;;;;-1.04;68.60;100572.58;107106;1257;74999;-40
2023/02/13 05:52:11;;;;;;;10.00;5.70;;;;;;;-1.06;68.86;100577.88;107235;1259;70111;-40
2023/02/13 05:54:40;;;;;;;9.00;5.10;;;;;;;-1.08;68.78;100578.83;107244;1257;72338;-40
2023/02/13 05:57:08;;;;;;;10.40;5.80;;;;;;;-1.10;68.92;100574.06;106473;1256;1002952;-40
2023/02/13 05:59:36;;;;;;;9.00;4.80;;;;;;;-1.12;68.86;100568.46;107325;1257;60338;-40
2023/02/13 06:02:05;;;;;;;9.50;5.40;;;;;;;-1.01;68.87;100574.84;107293;1257;75171;-40
2023/02/13 06:04:33;;;;;;;9.80;5.50;;;;;;;-0.97;68.66;100570.89;107299;1257;70131;-40
2023/02/13 06:07:02;;;;;;;9.80;6.40;;;;;;;-0.97;68.89;100571.42;107254;1257;73955;-40
2023/02/13 06:09:31;;;;;;;8.30;5.10;;;;;;;-0.99;68.70;100569.70;107316;1260;60431;-40
2023/02/13 06:12:03;;;;;;;13.90;6.50;;;;;;;-1.03;68.89;100571.16;107295;1257;61508;-40
2023/02/13 06:14:32;;;;;;;11.70;6.30;;;;;;;-1.06;68.92;100569.80;107340;1257;73955;-40
2023/02/13 06:17:01;;;;;;;11.50;6.40;;;;;;;-1.10;69.22;100564.45;107343;1258;68791;-40
2023/02/13 06:19:29;;;;;;;11.80;6.40;;;;;;;-1.06;69.23;100561.98;107306;1257;73841;-40
2023/02/13 06:21:58;;;;;;;13.60;6.60;;;;;;;-0.97;69.15;100561.95;107292;1257;60786;-40
2023/02/13 06:24:26;;;;;;;11.20;6.40;;;;;;;-0.93;69.01;100559.52;107355;1260;61560;-40
2023/02/13 06:26:56;;;;;;;10.90;6.80;;;;;;;-0.94;68.99;100560.27;107356;1257;75104;-40
2023/02/13 06:29:25;;;;;;;14.70;7.30;;;;;;;-0.97;69.06;100550.23;107327;1257;70938;-40
2023/02/13 06:31:54;;;;;;;11.40;7.40;;;;;;;-0.99;69.26;100550.42;107358;1257;73844;-40
2023/02/13 06:34:23;;;;;;;12.00;6.60;;;;;;;-1.02;69.40;100547.48;107305;1257;59732;-40
2023/02/13 06:36:51;;;;;;;9.80;6.60;;;;;;;-1.00;69.39;100548.77;107317;1256;61549;-40
2023/02/13 06:39:20;;;;;;;12.30;6.70;;;;;;;-0.92;69.28;100548.10;107324;1256;73244;-41
2023/02/13 06:41:48;;;;;;;12.50;7.10;;;;;;;-0.87;69.44;100544.93;107330;1257;69781;-40
2023/02/13 06:44:16;;;;;;;13.60;7.40;;;;;;;-0.83;69.27;100540.54;106536;1257;1016139;-40
2023/02/13 06:46:45;;;;;;;13.80;8.00;;;;;;;-0.82;69.06;100536.40;106578;1257;1003108;-40
2023/02/13 06:49:14;;;;;;;14.40;8.30;;;;;;;-0.84;69.17;100531.21;107337;1256;61511;-40
2023/02/13 06:51:42;;;;;;;14.10;8.70;;;;;;;-0.87;69.36;100524.59;107312;1260;75117;-40
2023/02/13 06:54:12;;;;;;;;;;;;;;;-0.91;69.82;100526.27;107325;1260;67659;-40
2023/02/13 06:56:41;;;;;;;15.00;8.40;;;;;;;-0.89;69.90;100524.27;107295;1257;73902;-40
2023/02/13 06:59:09;;;;;;;15.70;8.80;;;;;;;-0.87;70.14;100525.77;107274;1256;60440;-40
2023/02/13 07:01:38;;;;;;;16.50;9.20;;;;;;;-0.85;70.10;100523.33;107342;1256;61422;-40
2023/02/13 07:04:07;;;;;;;15.30;9.20;;;;;;;-0.91;70.14;100511.42;107264;1257;74759;-40
2023/02/13 07:06:38;;;;;;;15.40;10.10;;;;;;;-0.80;70.28;100526.19;107292;1256;68700;-40
2023/02/13 07:09:06;;;;;;;16.70;10.00;;;;;;;-0.77;70.14;100523.18;106492;1258;1003314;-40
2023/02/13 07:11:36;;;;;;;17.80;10.40;;;;;;;-0.71;70.18;100514.21;106521;1257;1003532;-40
2023/02/13 07:14:06;;;;;;;17.20;9.60;;;;;;;-0.59;69.91;100513.80;107256;1257;61518;-40
2023/02/13 07:16:38;;;;;;;17.50;10.10;;;;;;;-0.44;69.53;100505.84;107276;1257;74956;-40
2023/02/13 07:19:07;;;;;;;16.60;10.80;;;;;;;-0.40;69.29;100502.77;107367;1258;70059;-40
2023/02/13 07:21:36;;;;;;;20.50;11.20;;;;;;;-0.39;69.43;100496.33;107342;1257;73761;-40
2023/02/13 07:24:06;;;;;;;20.40;11.50;;;;;;;-0.40;69.45;100494.99;106601;1258;1003160;-40
2023/02/13 07:26:35;;;;;;;20.10;12.10;;;;;;;-0.41;69.65;100493.71;107372;1258;61523;-40
2023/02/13 07:29:04;;;;;;;17.80;11.50;;;;;;;-0.42;69.55;100495.83;106593;1257;1002874;-40
2023/02/13 07:31:39;;;;;;;20.40;11.90;;;;;;;-0.36;69.57;100497.84;107253;1257;69789;-40
2023/02/13 07:34:07;;;;;;;18.50;12.40;;;;;;;-0.26;69.68;100500.70;107306;1258;71621;-40
2023/02/13 07:36:36;;;;;;;20.20;12.00;;;;;;;-0.18;69.40;100509.48;107255;1260;60947;-40
2023/02/13 07:39:07;;;;;;;20.40;11.50;;;;;;;-0.12;69.09;100511.49;107284;1260;61298;-40
2023/02/13 07:41:35;;;;;;;19.30;13.40;;;;;;;-0.07;69.04;100509.91;107267;1257;74098;-40
2023/02/13 07:44:06;;;;;;;22.20;13.40;;;;;;;0.01;69.02;100508.27;107100;1257;69555;-41
2023/02/13 07:46:35;;;;;;;21.10;13.40;;;;;;;0.03;68.76;100504.91;107284;1257;73827;-40
2023/02/13 07:49:04;;;;;;;19.50;13.60;;;;;;;0.15;68.68;100505.77;107284;1257;61181;-41
2023/02/13 07:51:32;;;;;;;20.50;13.00;;;;;;;0.31;68.53;100514.17;107360;1257;61208;-40
2023/02/13 07:54:01;;;;;;;22.70;14.70;;;;;;;0.42;68.20;100506.25;107318;1256;75008;-40
2023/02/13 07:56:30;;;;;;;22.20;14.40;;;;;;;0.47;68.19;100506.42;107324;1260;69920;-41
2023/02/13 07:58:59;;;;;;;23.60;15.80;;;;;;;0.46;67.79;100498.79;107299;1261;72870;-41
2023/02/13 08:01:27;;;;;;;22.50;15.10;;;;;;;0.41;68.01;100498.30;107281;1257;60781;-41
2023/02/13 08:03:56;;;;;;;23.10;14.80;;;;;;;0.35;68.24;100495.67;107256;1257;60350;-40
2023/02/13 08:06:24;;;;;;;21.70;15.20;;;;;;;0.40;68.31;100496.11;107311;1257;75007;-40
2023/02/13 08:11:52;;;;;;;22.00;15.30;;;;;;;0.42;68.38;100494.35;106871;1257;201727;-40
2023/02/13 08:12:11;;;;;;;25.50;15.90;;;;;;;0.44;68.58;100501.83;104250;1292;600274;-41
2023/02/13 08:14:40;;;;;;;24.40;15.60;;;;;;;0.43;68.74;100503.20;106627;1267;60486;-41
2023/02/13 08:17:11;;;;;;;22.50;15.70;;;;;;;0.43;69.00;100502.30;106736;1265;61374;-41
2023/02/13 08:19:39;;;;;;;24.50;15.60;;;;;;;0.43;69.28;100499.64;106710;1266;73625;-40
2023/02/13 08:22:08;;;;;;;19.70;14.40;;;;;;;0.51;69.29;100497.50;106794;1266;69753;-41
2023/02/13 08:24:37;;;;;;;23.20;15.30;;;;;;;0.62;69.16;100497.58;106687;1267;177878;-42
2023/02/13 08:27:06;;;;;;;20.70;14.50;;;;;;;0.66;69.10;100501.10;106866;1264;60736;-41
2023/02/13 08:29:34;;;;;;;22.10;14.70;;;;;;;0.67;69.22;100498.06;106891;1263;61560;-41
2023/02/13 08:32:04;;;;;;;23.80;15.20;;;;;;;0.69;69.55;100498.77;106886;1264;73150;-41
2023/02/13 08:34:34;;;;;;;20.30;14.90;;;;;;;0.68;69.43;100502.45;106915;1264;69558;-41
2023/02/13 08:37:03;;;;;;;21.20;14.20;;;;;;;0.66;69.64;100511.35;106903;1264;73710;-41
2023/02/13 08:39:32;;;;;;;22.00;15.30;;;;;;;0.65;69.74;100511.30;106881;1264;61305;-41
2023/02/13 08:42:01;;;;;;;22.90;14.90;;;;;;;0.70;69.88;100512.59;106979;1264;61648;-41
2023/02/13 08:44:32;;;;;;;23.70;15.00;;;;;;;0.72;70.13;100506.34;106930;1262;74017;-41
2023/02/13 08:47:02;;;;;;;25.10;15.50;;;;;;;0.70;70.17;100497.31;106895;1263;69748;-41
2023/02/13 08:49:31;;;;;;;23.30;15.30;;;;;;;0.76;70.18;100501.15;106891;1263;73834;-41
2023/02/13 08:52:05;;;;;;;23.70;15.00;;;;;;;0.79;70.17;100497.10;106856;1265;60767;-40
2023/02/13 08:54:35;;;;;;;22.40;14.60;;;;;;;0.79;70.43;100498.33;106855;1263;61590;-41
2023/02/13 08:57:03;;;;;;;21.40;15.10;;;;;;;0.78;70.77;100499.30;106881;1263;71520;-41
2023/02/13 08:59:32;;;;;;;20.20;14.10;;;;;;;0.77;71.01;100487.61;106881;1264;69805;-40
2023/02/13 09:02:01;;;;;;;20.80;14.10;;;;;;;0.82;71.12;100484.40;106841;1262;72711;-41
2023/02/13 09:04:30;;;;;;;23.10;15.20;;;;;;;0.83;71.46;100483.86;106909;1264;60764;-41
2023/02/13 09:06:59;;;;;;;24.10;15.60;;;;;;;0.85;71.52;100475.75;106961;1262;59635;-41
2023/02/13 09:09:28;;;;;;;24.70;15.40;;;;;;;0.86;71.76;100475.27;106797;1266;74131;-41
2023/02/13 09:11:57;;;;;;;24.30;15.50;;;;;;;0.85;71.97;100470.73;106813;1264;69940;-41
2023/02/13 09:14:26;;;;;;;20.30;14.90;;;;;;;0.88;72.28;100466.89;106877;1264;73560;-41
2023/02/13 09:16:55;;;;;;;21.10;14.50;;;;;;;0.93;72.39;100463.73;106890;1262;59629;-41
2023/02/13 09:19:26;;;;;;;25.00;15.50;;;;;;;0.92;72.79;100468.33;106839;1263;61840;-40
2023/02/13 09:21:55;;;;;;;22.80;15.00;;;;;;;0.89;73.10;100462.08;106800;1263;74287;-41
2023/02/13 09:24:24;;;;;;;23.90;14.60;;;;;;;0.90;73.12;100462.98;106887;1262;68759;-41
2023/02/13 09:26:53;;;;;;;23.10;14.80;;;;;;;0.94;73.35;100456.31;106849;1263;72831;-41
2023/02/13 09:29:21;;;;;;;25.10;14.60;;;;;;;1.01;73.18;100451.48;106861;1263;61653;-40
2023/02/13 09:31:50;;;;;;;20.70;14.60;;;;;;;1.11;72.72;100452.59;106865;1262;59919;-41
2023/02/13 09:34:18;;;;;;;22.70;15.20;;;;;;;1.14;72.75;100448.25;106828;1266;74212;-41
2023/02/13 09:36:52;;;;;;;23.10;16.00;;;;;;;1.18;72.94;100445.91;106798;1264;69530;-41
2023/02/13 09:39:21;;;;;;;21.80;15.00;;;;;;;1.21;72.96;100439.85;106833;1264;73895;-41
2023/02/13 09:41:50;;;;;;;22.90;14.60;;;;;;;1.22;73.24;100437.13;106840;1263;62411;-41
2023/02/13 09:44:40;;;;;;;20.00;13.80;;;;;;;1.26;73.10;100435.09;106909;1264;61549;-41
2023/02/13 09:47:18;;;;;;;20.10;14.50;;;;;;;1.34;73.07;100433.52;106845;1262;72116;-41
2023/02/13 09:49:52;;;;;;;18.80;13.40;;;;;;;1.32;73.21;100428.34;106852;1263;69827;-41
2023/02/13 09:52:21;;;;;;;20.60;13.90;;;;;;;1.33;73.18;100424.71;106872;1264;73992;-39
2023/02/13 09:54:50;;;;;;;15.80;10.20;;;;;;;1.37;73.40;100425.66;106862;1262;61160;-40
2023/02/13 09:57:30;;;;;;;20.00;12.50;;;;;;;1.41;73.16;100424.68;106857;1266;60918;-40
2023/02/13 10:00:01;;;;;;;;;;;;;;;1.50;73.22;100425.52;106852;1266;73229;-40
2023/02/13 10:02:52;;;;;;;21.00;13.60;;;;;;;1.49;73.22;100418.82;106797;1266;69879;-40
2023/02/13 10:05:23;;;;;;;18.70;13.30;;;;;;;1.42;73.31;100399.61;106758;1263;72898;-41
2023/02/13 10:08:32;;;;;;;21.70;14.30;;;;;;;1.57;73.49;100407.41;106791;1264;60667;-40
2023/02/13 10:11:07;;;;;;;21.00;13.50;;;;;;;1.69;73.19;100405.53;106817;1262;61963;-41
2023/02/13 10:13:41;;;;;;;20.80;13.60;;;;;;;1.80;72.81;100399.27;106856;1264;74393;-41
2023/02/13 10:16:20;;;;;;;20.10;13.50;;;;;;;1.87;72.60;100396.14;106779;1264;69847;-41
2023/02/13 10:18:54;;;;;;;20.60;12.90;;;;;;;1.91;72.79;100396.33;106801;1264;73917;-39
2023/02/13 10:21:25;;;;;;;17.60;12.40;;;;;;;1.96;72.72;100395.55;106877;1262;59656;-39
2023/02/13 10:24:01;;;;;;;18.90;12.30;;;;;;;1.98;72.65;100390.70;106831;1264;61547;-39
2023/02/13 10:26:41;;;;;;;17.00;11.10;;;;;;;2.05;72.60;100382.48;106828;1263;74269;-39
2023/02/13 10:32:04;;;;;;;18.00;11.00;;;;;;;2.16;72.77;100375.30;106835;1264;73736;-40
2023/02/13 10:34:37;;;;;;;16.60;10.90;;;;;;;2.25;72.86;100369.61;106873;1263;59518;-41
2023/02/13 10:37:12;;;;;;;15.80;9.70;;;;;;;2.41;72.31;100366.22;106868;1263;61529;-41
2023/02/13 10:39:43;;;;;;;13.40;9.00;;;;;;;2.53;71.80;100356.95;106853;1263;74197;-40
2023/02/13 10:42:31;;;;;;;15.30;10.00;;;;;;;2.66;71.35;100350.64;106820;1264;68942;-41
2023/02/13 10:45:13;;;;;;;13.20;9.60;;;;;;;2.72;71.04;100348.04;106823;1263;73859;-41
2023/02/13 10:47:45;;;;;;;;;;;;;;;2.73;71.03;100352.59;106763;1264;59493;-41
2023/02/13 10:50:24;;;;;;;13.10;9.30;;;;;;;2.63;71.33;100350.81;106720;1264;61311;-41
2023/02/13 10:53:12;;;;;;;14.20;9.40;;;;;;;2.54;71.89;100346.61;106825;1263;73228;-41
2023/02/13 10:56:04;;;;;;;11.30;8.70;;;;;;;2.53;72.25;100347.20;106808;1264;69920;-40
2023/02/13 10:58:33;;;;;;;13.40;9.10;;;;;;;2.40;72.70;100333.21;106820;1264;73918;-41
2023/02/13 11:01:09;;;;;;;13.10;9.30;;;;;;;2.41;73.26;100344.38;106853;1264;60733;-40
2023/02/13 11:03:38;;;;;;;12.90;9.00;;;;;;;2.36;73.96;100337.24;106828;1264;60359;-39
2023/02/13 11:06:10;;;;;;;11.90;8.30;;;;;;;2.37;74.02;100346.45;106843;1266;74301;-39
2023/02/13 11:08:44;;;;;;;13.50;9.10;;;;;;;2.40;74.29;100341.61;106886;1266;69989;-39
2023/02/13 11:11:35;;;;;;;13.80;9.50;;;;;;;2.41;74.39;100341.70;106842;1264;74009;-39
2023/02/13 11:14:21;;;;;;;14.80;9.70;;;;;;;2.42;74.59;100333.79;106818;1264;59930;-39
2023/02/13 11:16:50;;;;;;;11.00;8.50;;;;;;;2.36;74.78;100327.41;106885;1266;60012;-40
2023/02/13 11:19:20;;;;;;;12.30;8.80;;;;;;;2.39;74.88;100320.53;106856;1263;74131;-40
2023/02/13 11:21:52;;;;;;;12.80;9.10;;;;;;;2.42;75.01;100317.98;106853;1264;69937;-39
2023/02/13 11:24:22;;;;;;;14.30;9.20;;;;;;;2.42;74.98;100317.81;106822;1264;72329;-40
2023/02/13 11:26:52;;;;;;;;;;;;;;;2.39;74.98;100318.48;106742;1262;60771;-39
2023/02/13 11:29:29;;;;;;;10.40;7.70;;;;;;;2.33;75.36;100312.87;106768;1264;61399;-40
2023/02/13 11:32:26;;;;;;;13.20;8.10;;;;;;;2.32;75.60;100316.14;106776;1264;74383;-40
2023/02/13 11:35:26;;;;;;;12.20;7.60;;;;;;;2.40;75.56;100316.40;106785;1264;69882;-40
2023/02/13 11:38:19;;;;;;;12.50;7.60;;;;;;;2.43;75.55;100317.00;106847;1266;73866;-40
2023/02/13 11:40:50;;;;;;;10.00;7.10;;;;;;;2.42;75.65;100308.73;106790;1262;59614;-40
2023/02/13 11:43:24;;;;;;;9.60;7.00;;;;;;;2.43;75.79;100308.19;106845;1262;61509;-40
2023/02/13 11:46:04;;;;;;;9.80;6.40;;;;;;;2.52;75.75;100310.08;106870;1266;73227;-40
2023/02/13 11:48:34;;;;;;;8.70;6.90;;;;;;;2.60;75.40;100307.95;106843;1264;69882;-40
2023/02/13 11:51:02;;;;;;;8.60;6.70;;;;;;;2.59;75.42;100304.91;106946;1263;71742;-40
2023/02/13 11:53:40;;;;;;;10.00;7.20;;;;;;;2.58;75.53;100296.89;106884;1263;60771;-40
2023/02/13 11:56:13;;;;;;;9.50;6.90;;;;;;;2.62;75.60;100297.27;106827;1262;61520;-40
2023/02/13 11:58:42;;;;;;;9.30;6.30;;;;;;;2.67;75.42;100293.10;106842;1264;73703;-40
2023/02/13 12:01:20;;;;;;;10.10;7.40;;;;;;;2.74;75.18;100286.59;106870;1264;69912;-40
2023/02/13 12:04:02;;;;;;;8.90;6.40;;;;;;;2.78;75.10;100283.56;106847;1266;73901;-40
2023/02/13 12:06:38;;;;;;;11.70;7.30;;;;;;;2.82;74.99;100280.95;106797;1262;60847;-40
2023/02/13 12:09:14;;;;;;;9.00;7.00;;;;;;;2.83;74.82;100282.70;106760;1264;61526;-40
2023/02/13 12:11:51;;;;;;;7.30;5.90;;;;;;;2.84;74.70;100279.15;106795;1264;73904;-40
2023/02/13 12:14:28;;;;;;;8.60;6.20;;;;;;;2.88;74.62;100279.48;106879;1264;69401;-39
2023/02/13 12:17:00;;;;;;;9.20;6.80;;;;;;;2.89;74.54;100279.59;106851;1263;73866;-40
2023/02/13 12:19:39;;;;;;;9.10;6.60;;;;;;;2.87;74.65;100276.39;106858;1264;59534;-40
2023/02/13 12:22:52;;;;;;;10.60;7.80;;;;;;;2.86;74.62;100274.73;106801;1263;61352;-40
2023/02/13 12:25:30;;;;;;;9.10;6.30;;;;;;;2.85;74.78;100277.02;106452;1270;73073;-40